Time;durP1;ratioP1;P1;durP2;ratioP2;P2;SDS_P1;SDS_P2;PMS_P1;PMS_P2;Temp;Humidity;BMP_temperature;BMP_pressure;BME280_temperature;BME280_humidity;BME280_pressure;Samples;Min_cycle;Max_cycle;Signal;HPM_P1;HPM_P2
2024/04/20 00:00:31;;;;;;;12.23;4.88;;;5.60;99.90;;;;;;5326584;26;20001;-55
2024/04/20 00:02:56;;;;;;;12.50;5.28;;;5.60;99.90;;;;;;5285777;26;20453;-57
2024/04/20 00:05:22;;;;;;;12.98;5.80;;;5.60;99.90;;;;;;5329254;26;20005;-55
2024/04/20 00:07:48;;;;;;;13.38;5.13;;;5.60;99.90;;;;;;5326684;26;20002;-59
2024/04/20 00:10:17;;;;;;;16.00;5.75;;;5.50;99.90;;;;;;5308667;26;20032;-55
2024/04/20 00:12:43;;;;;;;8.52;4.93;;;5.50;99.90;;;;;;5340619;26;20011;-56
2024/04/20 00:15:09;;;;;;;11.63;5.55;;;5.50;99.90;;;;;;5336319;26;20012;-56
2024/04/20 00:17:36;;;;;;;11.15;5.53;;;5.50;99.90;;;;;;5334133;26;20037;-58
2024/04/20 00:20:02;;;;;;;13.10;5.25;;;5.40;99.90;;;;;;5338095;26;19997;-58
2024/04/20 00:22:28;;;;;;;23.00;7.03;;;5.50;99.90;;;;;;5339136;26;20001;-60
2024/04/20 00:24:53;;;;;;;15.75;7.00;;;5.40;99.90;;;;;;5331330;26;20718;-53
2024/04/20 00:27:19;;;;;;;11.68;5.85;;;5.40;99.90;;;;;;5342132;26;20077;-53
2024/04/20 00:29:44;;;;;;;12.20;6.22;;;5.40;99.90;;;;;;5328648;26;20012;-56
2024/04/20 00:32:10;;;;;;;13.05;6.25;;;5.40;99.90;;;;;;5320838;26;20016;-53
2024/04/20 00:34:39;;;;;;;8.93;5.85;;;5.40;99.90;;;;;;5340736;26;20090;-53
2024/04/20 00:37:06;;;;;;;13.32;6.55;;;5.30;99.90;;;;;;5327533;26;20001;-53
2024/04/20 00:39:31;;;;;;;15.85;6.25;;;5.20;99.90;;;;;;5329582;26;20004;-54
2024/04/20 00:41:57;;;;;;;12.82;6.95;;;5.20;99.90;;;;;;5324250;26;19994;-54
2024/04/20 00:44:23;;;;;;;12.20;6.85;;;5.10;99.90;;;;;;5325158;26;19997;-56
2024/04/20 00:46:52;;;;;;;19.30;6.63;;;5.10;99.90;;;;;;5327284;26;19995;-59
2024/04/20 00:49:18;;;;;;;11.70;6.68;;;5.10;99.90;;;;;;5334259;26;20034;-55
2024/04/20 00:51:44;;;;;;;16.75;7.22;;;5.00;99.90;;;;;;5339667;26;19997;-60
2024/04/20 00:54:13;;;;;;;15.60;8.07;;;5.00;99.90;;;;;;5326947;26;20020;-54
2024/04/20 00:56:39;;;;;;;17.95;8.65;;;5.00;99.90;;;;;;5317355;26;19997;-54
2024/04/20 00:59:06;;;;;;;18.17;8.07;;;5.00;99.90;;;;;;5325132;26;20091;-57
2024/04/20 01:01:31;;;;;;;17.75;7.93;;;4.90;99.90;;;;;;5324634;26;20013;-54
2024/04/20 01:03:57;;;;;;;14.82;8.55;;;4.90;99.90;;;;;;5324983;26;20099;-56
2024/04/20 01:06:23;;;;;;;23.15;9.80;;;4.90;99.90;;;;;;5325749;26;20015;-55
2024/04/20 01:08:49;;;;;;;24.85;8.25;;;4.90;99.90;;;;;;5327482;26;20525;-56
2024/04/20 01:11:15;;;;;;;14.32;7.80;;;4.90;99.90;;;;;;5324139;26;20024;-59
2024/04/20 01:13:50;;;;;;;16.30;8.57;;;4.90;99.90;;;;;;5322941;26;20324;-57
2024/04/20 01:16:16;;;;;;;13.70;7.65;;;5.00;99.90;;;;;;5288631;26;19998;-57
2024/04/20 01:18:41;;;;;;;20.58;8.55;;;5.00;99.90;;;;;;5324332;26;20063;-56
2024/04/20 01:21:08;;;;;;;19.65;9.07;;;5.00;99.90;;;;;;5344926;26;19997;-56
2024/04/20 01:23:33;;;;;;;14.23;7.88;;;5.00;99.90;;;;;;5335716;26;20086;-53
2024/04/20 01:25:59;;;;;;;13.20;7.40;;;5.00;99.90;;;;;;5336983;26;20008;-56
2024/04/20 01:28:25;;;;;;;13.98;7.63;;;5.10;99.90;;;;;;5300968;26;20009;-53
2024/04/20 01:30:50;;;;;;;17.20;7.68;;;5.10;99.90;;;;;;5341723;26;20015;-54
2024/04/20 01:33:18;;;;;;;20.50;9.18;;;5.20;99.90;;;;;;5314843;26;20017;-53
2024/04/20 01:35:43;;;;;;;20.13;9.23;;;5.20;99.90;;;;;;5334284;26;20015;-54
2024/04/20 01:38:09;;;;;;;22.20;9.73;;;5.20;99.90;;;;;;5339369;26;20001;-55
2024/04/20 01:40:35;;;;;;;15.40;8.63;;;5.20;99.90;;;;;;5343524;26;20074;-55
2024/04/20 01:43:00;;;;;;;16.42;8.82;;;5.30;99.90;;;;;;5329385;26;20006;-58
2024/04/20 01:45:26;;;;;;;15.20;9.85;;;5.30;99.90;;;;;;5329487;26;20344;-55
2024/04/20 01:47:51;;;;;;;14.75;9.25;;;5.30;99.90;;;;;;5327145;26;19993;-57
2024/04/20 01:50:17;;;;;;;18.02;8.88;;;5.30;99.90;;;;;;5333681;26;20029;-54
2024/04/20 01:52:43;;;;;;;18.63;8.38;;;5.30;99.90;;;;;;5333926;26;20507;-59
2024/04/20 01:55:09;;;;;;;17.48;8.32;;;5.20;99.90;;;;;;5339545;26;20044;-57
2024/04/20 01:57:34;;;;;;;18.63;8.95;;;5.20;99.90;;;;;;5340837;26;20441;-56
2024/04/20 02:00:00;;;;;;;13.77;9.52;;;5.10;99.90;;;;;;5346024;26;20413;-56
2024/04/20 02:02:26;;;;;;;23.33;11.10;;;5.10;99.90;;;;;;5309919;26;20424;-55
2024/04/20 02:04:51;;;;;;;22.05;8.90;;;5.00;99.90;;;;;;5334842;26;20012;-56
2024/04/20 02:07:17;;;;;;;23.67;9.65;;;4.90;99.90;;;;;;5342987;26;20011;-54
2024/04/20 02:09:43;;;;;;;20.02;9.70;;;4.90;99.90;;;;;;5325464;26;20025;-54
2024/04/20 02:12:10;;;;;;;21.10;9.45;;;4.90;99.90;;;;;;5338501;26;20024;-53
2024/04/20 02:14:36;;;;;;;16.05;9.25;;;4.90;99.90;;;;;;5340817;26;20014;-56
2024/04/20 02:17:02;;;;;;;21.77;9.88;;;4.90;99.90;;;;;;5338626;26;20016;-57
2024/04/20 02:19:27;;;;;;;17.00;9.35;;;4.90;99.90;;;;;;5339654;26;20556;-56
2024/04/20 02:21:53;;;;;;;22.75;9.07;;;4.90;99.90;;;;;;5339052;26;20216;-54
2024/04/20 02:24:18;;;;;;;21.92;9.52;;;4.90;99.90;;;;;;5337179;26;20066;-57
2024/04/20 02:26:44;;;;;;;19.98;10.75;;;5.00;99.90;;;;;;5345712;26;20307;-55
2024/04/20 02:29:09;;;;;;;22.45;10.43;;;5.00;99.90;;;;;;5329957;26;19994;-55
2024/04/20 02:31:35;;;;;;;17.30;9.70;;;5.00;99.90;;;;;;5340362;26;20413;-54
2024/04/20 02:34:01;;;;;;;17.27;10.45;;;5.00;99.90;;;;;;5323956;26;20400;-59
2024/04/20 02:36:27;;;;;;;21.70;10.18;;;5.00;99.90;;;;;;5329099;26;20012;-56
2024/04/20 02:38:53;;;;;;;24.45;10.55;;;5.00;99.90;;;;;;5334854;26;20462;-58
2024/04/20 02:41:19;;;;;;;19.35;10.85;;;5.00;99.90;;;;;;5340142;26;20066;-54
2024/04/20 02:43:44;;;;;;;28.15;10.68;;;5.00;99.90;;;;;;5337172;26;20413;-53
2024/04/20 02:46:11;;;;;;;24.70;11.35;;;5.00;99.90;;;;;;5330564;26;20010;-56
2024/04/20 02:48:37;;;;;;;26.52;10.68;;;5.00;99.90;;;;;;5324645;26;20074;-58
2024/04/20 02:51:03;;;;;;;19.30;11.45;;;5.10;99.90;;;;;;5329257;26;20009;-57
2024/04/20 02:53:29;;;;;;;24.70;11.90;;;5.00;99.90;;;;;;5343104;26;20005;-57
2024/04/20 02:55:54;;;;;;;19.42;11.23;;;5.10;99.90;;;;;;5328647;26;20391;-57
2024/04/20 02:58:20;;;;;;;21.52;10.48;;;5.10;99.90;;;;;;5323689;26;20030;-57
2024/04/20 03:00:57;;;;;;;19.80;10.57;;;5.00;99.90;;;;;;5324337;26;20009;-59
2024/04/20 03:03:23;;;;;;;22.13;10.07;;;5.00;99.90;;;;;;5327375;26;19997;-56
2024/04/20 03:05:48;;;;;;;23.20;10.52;;;5.00;99.90;;;;;;5324860;26;20021;-57
2024/04/20 03:08:14;;;;;;;23.30;10.80;;;5.00;99.90;;;;;;5324735;26;20001;-57
2024/04/20 03:10:40;;;;;;;23.00;10.13;;;5.00;99.90;;;;;;5324311;26;20074;-55
2024/04/20 03:13:05;;;;;;;21.95;11.45;;;5.00;99.90;;;;;;5324150;26;20001;-57
2024/04/20 03:15:31;;;;;;;19.75;11.27;;;5.00;99.90;;;;;;5321358;26;20029;-54
2024/04/20 03:17:56;;;;;;;29.65;13.15;;;5.00;99.90;;;;;;5331493;26;20012;-57
2024/04/20 03:20:22;;;;;;;29.02;12.18;;;5.00;99.90;;;;;;5331932;26;20000;-57
2024/04/20 03:22:48;;;;;;;28.13;12.88;;;4.90;99.90;;;;;;5334174;26;20005;-55
2024/04/20 03:25:15;;;;;;;25.50;11.93;;;4.90;99.90;;;;;;5336025;26;20001;-58
2024/04/20 03:27:41;;;;;;;23.27;11.10;;;4.80;99.90;;;;;;5332109;26;20004;-56
2024/04/20 03:30:07;;;;;;;26.40;11.70;;;4.80;99.90;;;;;;5334228;26;20005;-58
2024/04/20 03:32:33;;;;;;;24.67;12.55;;;4.80;99.90;;;;;;5326096;26;20013;-56
2024/04/20 03:34:59;;;;;;;27.02;12.38;;;4.80;99.90;;;;;;5325554;26;20132;-56
2024/04/20 03:37:24;;;;;;;22.85;11.05;;;4.80;99.90;;;;;;5324506;26;20004;-55
2024/04/20 03:39:50;;;;;;;22.10;12.05;;;4.80;99.90;;;;;;5331972;26;20390;-58
2024/04/20 03:42:15;;;;;;;18.63;11.38;;;4.80;99.90;;;;;;5324511;26;20024;-58
2024/04/20 03:44:42;;;;;;;22.30;10.82;;;4.80;99.90;;;;;;5325606;26;20016;-56
2024/04/20 03:47:08;;;;;;;21.90;11.10;;;4.90;99.90;;;;;;5323085;26;20006;-54
2024/04/20 03:49:33;;;;;;;25.05;11.40;;;4.80;99.90;;;;;;5324058;26;20024;-57
2024/04/20 03:51:59;;;;;;;20.50;10.82;;;4.90;99.90;;;;;;5321544;26;20470;-56
2024/04/20 03:54:24;;;;;;;20.85;10.23;;;4.90;99.90;;;;;;5330277;26;20001;-55
2024/04/20 03:56:50;;;;;;;28.55;12.20;;;4.90;99.90;;;;;;5322247;26;20002;-53
2024/04/20 03:59:16;;;;;;;22.45;11.18;;;4.90;99.90;;;;;;5323479;26;20332;-57
2024/04/20 04:01:41;;;;;;;26.60;10.10;;;4.90;99.90;;;;;;5283429;26;20049;-53
2024/04/20 04:04:07;;;;;;;23.85;10.75;;;4.90;99.90;;;;;;5324416;26;20005;-60
2024/04/20 04:06:32;;;;;;;25.45;9.93;;;4.90;99.90;;;;;;5324690;26;20005;-56
2024/04/20 04:08:58;;;;;;;18.50;9.38;;;4.80;99.90;;;;;;5317821;26;20035;-56
2024/04/20 04:11:24;;;;;;;23.88;11.35;;;4.80;99.90;;;;;;5319349;26;20004;-53
2024/04/20 04:13:49;;;;;;;18.08;8.95;;;4.80;99.90;;;;;;5327016;26;20012;-56
2024/04/20 04:16:15;;;;;;;20.17;10.02;;;4.80;99.90;;;;;;5340978;26;20005;-55
2024/04/20 04:18:40;;;;;;;23.83;9.88;;;4.80;99.90;;;;;;5339429;26;20004;-56
2024/04/20 04:21:10;;;;;;;17.40;8.75;;;4.80;99.90;;;;;;5333032;26;20019;-53
2024/04/20 04:23:36;;;;;;;20.60;9.98;;;4.80;99.90;;;;;;5328279;26;20005;-56
2024/04/20 04:26:03;;;;;;;23.05;10.70;;;4.80;99.90;;;;;;5323280;26;20016;-54
2024/04/20 04:28:31;;;;;;;18.75;10.00;;;4.80;99.90;;;;;;5335901;26;20356;-58
2024/04/20 04:30:57;;;;;;;21.83;11.52;;;4.80;99.90;;;;;;5335853;26;20004;-56
2024/04/20 04:33:23;;;;;;;22.13;11.65;;;4.90;99.90;;;;;;5339047;26;20015;-56
2024/04/20 04:35:56;;;;;;;21.00;12.15;;;4.90;99.90;;;;;;5331478;26;20082;-53
2024/04/20 04:38:22;;;;;;;26.52;12.05;;;4.90;99.90;;;;;;5329263;26;19993;-54
2024/04/20 04:40:47;;;;;;;21.83;11.43;;;4.90;99.90;;;;;;5323077;26;20478;-59
2024/04/20 04:43:13;;;;;;;25.30;12.40;;;5.00;99.90;;;;;;5328199;26;20008;-56
2024/04/20 04:45:39;;;;;;;23.42;11.57;;;5.00;99.90;;;;;;5327127;26;20021;-56
2024/04/20 04:48:05;;;;;;;28.52;13.50;;;5.00;99.90;;;;;;5323525;26;19997;-55
2024/04/20 04:50:31;;;;;;;30.63;14.90;;;5.10;99.90;;;;;;5326939;26;20071;-56
2024/04/20 04:52:57;;;;;;;31.85;14.02;;;5.00;99.90;;;;;;5330088;26;20013;-60
2024/04/20 04:55:22;;;;;;;24.77;12.90;;;5.10;99.90;;;;;;5327165;26;20055;-57
2024/04/20 04:57:48;;;;;;;26.08;12.50;;;5.20;99.90;;;;;;5326624;26;20001;-58
2024/04/20 05:00:14;;;;;;;34.00;14.15;;;5.10;99.90;;;;;;5327855;26;20001;-53
2024/04/20 05:02:39;;;;;;;24.15;13.35;;;5.10;99.90;;;;;;5326654;26;20019;-56
2024/04/20 05:05:05;;;;;;;22.92;13.02;;;5.20;99.90;;;;;;5325087;26;20008;-55
2024/04/20 05:07:31;;;;;;;22.10;13.48;;;5.30;99.90;;;;;;5326762;26;19997;-56
2024/04/20 05:09:56;;;;;;;22.90;12.23;;;5.30;99.90;;;;;;5322925;26;20003;-56
2024/04/20 05:12:22;;;;;;;24.25;12.75;;;5.30;99.90;;;;;;5329540;26;20005;-53
2024/04/20 05:14:48;;;;;;;25.50;12.25;;;5.40;99.90;;;;;;5336660;26;20009;-55
2024/04/20 05:17:13;;;;;;;21.90;12.02;;;5.50;99.90;;;;;;5328702;26;20019;-55
2024/04/20 05:19:39;;;;;;;21.85;11.55;;;5.60;99.90;;;;;;5337363;26;20001;-55
2024/04/20 05:22:05;;;;;;;20.08;11.38;;;5.60;99.90;;;;;;5327980;26;20006;-54
2024/04/20 05:24:30;;;;;;;22.35;12.75;;;5.60;99.90;;;;;;5304959;26;20327;-56
2024/04/20 05:26:56;;;;;;;15.75;9.77;;;5.70;99.90;;;;;;5336795;26;20001;-54
2024/04/20 05:29:21;;;;;;;18.35;10.88;;;5.60;99.90;;;;;;5334798;26;19993;-56
2024/04/20 05:31:47;;;;;;;21.45;11.65;;;5.60;99.90;;;;;;5342863;26;20005;-56
2024/04/20 05:34:13;;;;;;;16.23;10.57;;;5.60;99.90;;;;;;5313164;26;20517;-59
2024/04/20 05:36:38;;;;;;;16.08;10.60;;;5.50;99.90;;;;;;5328684;26;20335;-58
2024/04/20 05:39:04;;;;;;;17.77;9.30;;;5.60;99.90;;;;;;5321499;26;20379;-57
2024/04/20 05:41:29;;;;;;;19.33;9.98;;;5.50;99.90;;;;;;5324240;26;20001;-58
2024/04/20 05:43:55;;;;;;;21.65;9.45;;;5.50;99.90;;;;;;5326397;26;20010;-55
2024/04/20 05:46:20;;;;;;;17.77;10.25;;;5.50;99.90;;;;;;5326046;26;20004;-57
2024/04/20 05:48:47;;;;;;;17.52;9.93;;;5.50;99.90;;;;;;5325848;26;20017;-57
2024/04/20 05:51:13;;;;;;;17.40;9.50;;;5.50;99.90;;;;;;5294020;26;20021;-57
2024/04/20 05:53:39;;;;;;;16.73;9.15;;;5.50;99.90;;;;;;5334686;26;20428;-56
2024/04/20 05:56:04;;;;;;;13.25;8.32;;;5.60;99.90;;;;;;5334526;26;20005;-55
2024/04/20 05:58:31;;;;;;;13.27;8.15;;;5.60;99.90;;;;;;5325240;26;20020;-59
2024/04/20 06:00:56;;;;;;;13.93;8.35;;;5.70;99.90;;;;;;5327474;26;20352;-59
2024/04/20 06:03:22;;;;;;;14.35;7.40;;;5.60;99.90;;;;;;5338279;26;20012;-53
2024/04/20 06:05:48;;;;;;;10.48;7.28;;;5.60;99.90;;;;;;5338884;26;20075;-59
2024/04/20 06:08:14;;;;;;;12.88;7.15;;;5.60;99.90;;;;;;5330248;26;20458;-57
2024/04/20 06:10:40;;;;;;;11.02;7.07;;;5.60;99.90;;;;;;5341802;26;20000;-54
2024/04/20 06:13:05;;;;;;;19.02;7.00;;;5.60;99.90;;;;;;5287483;26;20005;-56
2024/04/20 06:15:34;;;;;;;9.70;5.97;;;5.50;99.90;;;;;;5336428;26;19997;-56
2024/04/20 06:18:00;;;;;;;13.23;6.43;;;5.60;99.90;;;;;;5340634;26;20120;-57
2024/04/20 06:20:26;;;;;;;10.30;5.68;;;5.50;99.90;;;;;;5348540;26;20050;-56
2024/04/20 06:22:52;;;;;;;11.18;4.72;;;5.50;99.90;;;;;;5342235;26;20033;-56
2024/04/20 06:25:17;;;;;;;7.80;3.28;;;5.60;99.90;;;;;;5336104;26;20112;-56
2024/04/20 06:27:43;;;;;;;7.05;3.45;;;5.50;99.90;;;;;;5331817;26;20011;-57
2024/04/20 06:30:09;;;;;;;6.88;2.85;;;5.40;99.90;;;;;;5329369;26;20008;-56
2024/04/20 06:32:35;;;;;;;5.75;3.22;;;5.40;99.90;;;;;;5322572;26;20015;-56
2024/04/20 06:35:01;;;;;;;6.80;3.13;;;5.40;99.90;;;;;;5308297;26;22606;-56
2024/04/20 06:37:26;;;;;;;5.28;2.53;;;5.50;99.90;;;;;;5326875;26;20001;-56
2024/04/20 06:39:52;;;;;;;4.75;2.63;;;5.40;99.90;;;;;;5320578;26;20452;-56
2024/04/20 06:42:17;;;;;;;3.92;2.30;;;5.50;99.90;;;;;;5325229;26;20354;-58
2024/04/20 06:44:50;;;;;;;12.32;3.67;;;5.60;99.90;;;;;;5325417;26;20010;-55
2024/04/20 06:47:15;;;;;;;7.07;3.42;;;5.50;99.90;;;;;;5319705;26;20035;-57
2024/04/20 06:49:41;;;;;;;7.03;3.03;;;5.50;99.90;;;;;;5329582;26;20005;-53
2024/04/20 06:52:08;;;;;;;5.45;3.05;;;5.60;99.90;;;;;;5326627;26;19996;-57
2024/04/20 06:54:33;;;;;;;6.70;2.78;;;5.70;99.90;;;;;;5329826;26;20009;-56
2024/04/20 06:56:59;;;;;;;6.50;3.40;;;5.70;99.90;;;;;;5326830;26;20012;-58
2024/04/20 06:59:25;;;;;;;10.55;3.50;;;5.70;99.90;;;;;;5301729;26;20005;-57
2024/04/20 07:01:51;;;;;;;11.40;3.17;;;5.70;99.90;;;;;;5301936;26;20029;-59
2024/04/20 07:04:17;;;;;;;9.38;3.63;;;5.80;99.90;;;;;;5334029;26;20016;-59
2024/04/20 07:06:42;;;;;;;4.95;3.70;;;5.80;99.90;;;;;;5342046;26;20000;-56
2024/04/20 07:09:08;;;;;;;5.57;3.60;;;5.70;99.90;;;;;;5328269;26;20001;-55
2024/04/20 07:11:33;;;;;;;10.48;4.50;;;5.70;99.90;;;;;;5340432;26;20001;-53
2024/04/20 07:13:59;;;;;;;8.18;4.60;;;5.80;99.90;;;;;;5333300;26;20470;-56
2024/04/20 07:16:25;;;;;;;8.10;4.85;;;5.90;99.90;;;;;;5333338;26;19997;-56
2024/04/20 07:18:50;;;;;;;8.82;5.57;;;5.90;99.90;;;;;;5335275;26;20112;-54
2024/04/20 07:21:16;;;;;;;12.13;4.63;;;6.00;99.90;;;;;;5344535;26;19996;-55
2024/04/20 07:23:41;;;;;;;10.50;5.07;;;6.00;99.90;;;;;;5333936;26;19997;-55
2024/04/20 07:26:07;;;;;;;8.02;4.93;;;6.00;99.90;;;;;;5331565;26;20093;-59
2024/04/20 07:28:33;;;;;;;9.20;5.32;;;6.30;99.90;;;;;;5307370;26;20001;-54
2024/04/20 07:31:00;;;;;;;8.02;4.32;;;6.60;99.90;;;;;;5330942;26;20451;-55
2024/04/20 07:33:25;;;;;;;7.82;4.20;;;7.00;99.90;;;;;;5330613;26;20083;-58
2024/04/20 07:35:51;;;;;;;7.38;3.83;;;7.40;99.90;;;;;;5305356;26;20037;-56
2024/04/20 07:38:17;;;;;;;5.13;3.38;;;7.80;99.90;;;;;;5322246;26;20413;-57
2024/04/20 07:40:42;;;;;;;6.22;3.50;;;8.00;99.90;;;;;;5331071;26;20008;-57
2024/04/20 07:43:08;;;;;;;4.63;2.60;;;8.40;99.90;;;;;;5326407;26;20076;-57
2024/04/20 07:45:34;;;;;;;3.90;2.15;;;8.50;99.90;;;;;;5336726;26;20070;-59
2024/04/20 07:48:00;;;;;;;5.18;2.47;;;8.80;99.90;;;;;;5341600;26;19998;-57
2024/04/20 07:50:26;;;;;;;8.20;4.55;;;9.00;99.90;;;;;;5343861;26;20405;-54
2024/04/20 07:52:51;;;;;;;14.48;6.22;;;9.00;99.90;;;;;;5337335;26;20001;-53
2024/04/20 07:55:18;;;;;;;8.57;4.25;;;9.10;99.90;;;;;;5335802;26;20001;-54
2024/04/20 07:57:44;;;;;;;5.97;2.60;;;9.00;99.90;;;;;;5343295;26;20005;-55
2024/04/20 08:00:13;;;;;;;5.57;2.95;;;9.10;99.90;;;;;;5338936;26;20011;-58
2024/04/20 08:02:39;;;;;;;6.85;3.50;;;9.20;99.90;;;;;;5312734;26;20076;-57
2024/04/20 08:05:06;;;;;;;5.20;2.47;;;9.50;99.90;;;;;;5332847;26;20008;-59
2024/04/20 08:07:34;;;;;;;3.80;2.55;;;9.80;99.90;;;;;;5353783;26;20009;-55
2024/04/20 08:10:00;;;;;;;4.47;2.97;;;9.70;99.90;;;;;;5343292;26;19997;-56
2024/04/20 08:12:26;;;;;;;6.28;3.42;;;9.10;99.90;;;;;;5330072;26;20001;-54
2024/04/20 08:14:51;;;;;;;4.10;3.40;;;9.10;99.90;;;;;;5303605;26;20029;-57
2024/04/20 08:17:17;;;;;;;6.13;3.15;;;8.70;99.90;;;;;;5347314;26;20006;-56
2024/04/20 08:19:43;;;;;;;4.03;2.75;;;8.30;99.90;;;;;;5348392;26;20045;-57
2024/04/20 08:22:08;;;;;;;5.65;3.05;;;7.90;99.90;;;;;;5329426;26;20001;-57
2024/04/20 08:24:34;;;;;;;3.53;2.42;;;7.60;99.90;;;;;;5323642;26;20036;-58
2024/04/20 08:26:59;;;;;;;4.30;2.05;;;7.10;99.90;;;;;;5336228;26;20000;-57
2024/04/20 08:29:25;;;;;;;4.47;1.90;;;6.90;99.90;;;;;;5344065;26;20009;-58
2024/04/20 08:31:51;;;;;;;3.60;2.40;;;6.80;99.90;;;;;;5339016;26;20444;-56
2024/04/20 08:34:17;;;;;;;3.80;2.33;;;6.70;99.90;;;;;;5333598;26;20023;-54
2024/04/20 08:36:45;;;;;;;4.20;2.30;;;6.80;99.90;;;;;;5336771;26;20009;-55
2024/04/20 08:39:11;;;;;;;6.35;3.50;;;6.80;99.90;;;;;;5310596;26;21738;-59
2024/04/20 08:41:51;;;;;;;9.48;5.00;;;6.90;99.90;;;;;;5324015;26;21834;-56
2024/04/20 08:44:19;;;;;;;8.25;5.13;;;6.90;99.90;;;;;;5330433;26;20035;-56
2024/04/20 08:46:49;;;;;;;7.78;3.63;;;6.90;99.90;;;;;;5328905;26;20558;-57
2024/04/20 08:49:16;;;;;;;5.38;2.65;;;6.80;99.90;;;;;;5332388;26;20008;-58
2024/04/20 08:51:44;;;;;;;6.00;2.92;;;7.00;99.90;;;;;;5341866;26;20012;-56
2024/04/20 08:54:12;;;;;;;3.72;2.53;;;7.00;99.90;;;;;;5328954;26;19998;-56
2024/04/20 08:56:40;;;;;;;4.78;3.05;;;7.10;99.90;;;;;;5322947;26;20025;-57
2024/04/20 08:59:06;;;;;;;6.72;2.80;;;7.30;99.90;;;;;;5338194;26;20062;-56
2024/04/20 09:01:34;;;;;;;6.43;2.85;;;7.30;99.90;;;;;;5336771;26;21216;-58
2024/04/20 09:04:00;;;;;;;12.25;2.92;;;7.30;99.90;;;;;;5336093;26;20013;-56
2024/04/20 09:06:26;;;;;;;3.67;2.25;;;7.40;99.90;;;;;;5323014;26;20005;-57
2024/04/20 09:08:53;;;;;;;4.05;2.33;;;7.30;99.90;;;;;;5320578;26;20439;-55
2024/04/20 09:11:19;;;;;;;4.75;2.15;;;7.40;99.90;;;;;;5325419;26;20008;-56
2024/04/20 09:13:44;;;;;;;2.67;1.77;;;7.80;99.90;;;;;;5328968;26;20004;-55
2024/04/20 09:16:11;;;;;;;3.83;1.63;;;8.10;99.90;;;;;;5321733;26;20328;-58
2024/04/20 09:18:39;;;;;;;2.33;1.48;;;8.70;99.90;;;;;;5326260;26;20001;-56
2024/04/20 09:21:05;;;;;;;1.50;1.00;;;8.90;99.90;;;;;;5332776;26;20451;-58
2024/04/20 09:23:30;;;;;;;1.50;1.02;;;9.70;99.90;;;;;;5311064;26;20020;-57
2024/04/20 09:25:56;;;;;;;1.83;1.05;;;10.20;99.90;;;;;;5323571;26;20005;-55
2024/04/20 09:28:27;;;;;;;3.03;1.23;;;10.10;99.90;;;;;;5331451;26;20005;-55
2024/04/20 09:30:54;;;;;;;1.25;0.98;;;10.90;99.90;;;;;;5328644;26;19997;-55
2024/04/20 09:33:21;;;;;;;6.70;1.77;;;11.30;99.90;;;;;;5327830;26;20708;-57
2024/04/20 09:35:47;;;;;;;2.42;1.38;;;11.20;99.90;;;;;;5331029;26;19992;-56
2024/04/20 09:38:13;;;;;;;3.55;1.38;;;11.00;99.90;;;;;;5306277;26;21827;-55
2024/04/20 09:40:38;;;;;;;3.03;1.33;;;10.70;99.90;;;;;;5316927;26;19997;-57
2024/04/20 09:43:06;;;;;;;1.90;1.05;;;10.10;99.90;;;;;;5322854;26;20616;-58
2024/04/20 09:45:36;;;;;;;2.58;1.35;;;9.70;99.90;;;;;;5326573;26;19997;-55
2024/04/20 09:48:06;;;;;;;2.88;1.70;;;9.50;99.90;;;;;;5324112;26;20476;-57
2024/04/20 09:50:32;;;;;;;1.73;1.23;;;9.30;99.90;;;;;;5332462;26;20001;-58
2024/04/20 09:53:12;;;;;;;2.33;1.60;;;9.00;99.90;;;;;;5340714;26;20081;-57
2024/04/20 09:55:46;;;;;;;2.35;1.92;;;8.90;99.90;;;;;;5329051;26;19997;-56
2024/04/20 09:58:12;;;;;;;;;;;8.90;99.90;;;;;;5321550;26;20013;-57
2024/04/20 10:00:40;;;;;;;3.08;1.83;;;8.90;99.90;;;;;;5343983;26;19932;-56
2024/04/20 10:03:07;;;;;;;4.43;2.75;;;9.50;99.90;;;;;;5342083;26;20030;-55
2024/04/20 10:05:36;;;;;;;2.83;1.95;;;10.70;99.90;;;;;;5339522;26;20020;-58
2024/04/20 10:08:03;;;;;;;4.53;2.90;;;11.20;99.90;;;;;;5304047;26;20005;-57
2024/04/20 10:10:29;;;;;;;4.60;2.45;;;11.90;99.90;;;;;;5305199;26;20053;-59
2024/04/20 10:13:02;;;;;;;5.07;2.78;;;12.30;99.90;;;;;;5328399;26;20007;-59
2024/04/20 10:15:33;;;;;;;5.50;2.65;;;11.70;99.90;;;;;;5337317;26;19992;-57
2024/04/20 10:18:00;;;;;;;6.32;2.80;;;11.20;99.90;;;;;;5331381;26;20023;-56
2024/04/20 10:20:36;;;;;;;3.38;2.22;;;10.70;99.90;;;;;;5324467;26;20452;-58
2024/04/20 10:23:19;;;;;;;3.47;1.95;;;10.00;99.90;;;;;;5346185;26;20020;-58
2024/04/20 10:25:48;;;;;;;3.53;2.15;;;9.40;99.90;;;;;;5327242;26;20012;-57
2024/04/20 10:28:31;;;;;;;7.38;2.90;;;8.90;99.90;;;;;;5346466;26;20010;-56
2024/04/20 10:30:59;;;;;;;2.55;1.85;;;9.30;99.90;;;;;;5330341;26;20037;-56
2024/04/20 10:33:26;;;;;;;6.78;2.63;;;9.80;99.90;;;;;;5340964;26;20001;-57
2024/04/20 10:35:59;;;;;;;3.15;2.22;;;10.50;99.90;;;;;;5319501;26;20008;-58
2024/04/20 10:38:29;;;;;;;6.47;2.40;;;10.90;99.90;;;;;;5333269;26;20011;-58
2024/04/20 10:40:54;;;;;;;4.80;2.05;;;11.50;99.90;;;;;;5327467;26;20012;-59
2024/04/20 10:43:22;;;;;;;4.22;1.92;;;11.70;99.90;;;;;;5322298;26;20026;-59
2024/04/20 10:46:00;;;;;;;2.47;1.80;;;12.00;99.90;;;;;;5320433;26;20008;-56
2024/04/20 10:48:26;;;;;;;4.75;2.22;;;11.70;99.90;;;;;;5326407;26;19997;-55
2024/04/20 10:50:58;;;;;;;3.97;1.80;;;12.00;99.90;;;;;;5350676;26;20308;-57
2024/04/20 10:53:24;;;;;;;6.43;1.58;;;12.00;99.90;;;;;;5335076;26;20005;-55
2024/04/20 10:55:59;;;;;;;2.83;1.83;;;11.60;99.90;;;;;;5325582;26;20486;-60
2024/04/20 10:58:26;;;;;;;3.60;1.35;;;11.60;99.90;;;;;;5319465;26;20455;-56
2024/04/20 11:00:57;;;;;;;2.15;1.13;;;11.90;99.90;;;;;;5329714;26;20004;-56
2024/04/20 11:03:23;;;;;;;2.83;1.65;;;11.70;99.90;;;;;;5334335;26;19997;-58
2024/04/20 11:05:56;;;;;;;2.83;1.25;;;11.30;99.90;;;;;;5319480;26;20036;-58
2024/04/20 11:08:25;;;;;;;3.37;1.23;;;11.20;99.90;;;;;;5328488;26;19997;-57
2024/04/20 11:10:53;;;;;;;2.38;1.15;;;10.60;99.90;;;;;;5329443;26;20012;-56
2024/04/20 11:13:18;;;;;;;3.47;1.17;;;10.30;99.90;;;;;;5321607;26;20028;-60
2024/04/20 11:15:46;;;;;;;2.35;1.20;;;10.10;99.90;;;;;;5338905;26;20327;-56
2024/04/20 11:18:13;;;;;;;1.90;0.90;;;9.80;99.90;;;;;;5325598;26;20001;-54
2024/04/20 11:20:39;;;;;;;2.80;1.25;;;9.80;99.90;;;;;;5324653;26;20017;-54
2024/04/20 11:23:06;;;;;;;2.30;0.95;;;9.80;99.90;;;;;;5333856;26;20023;-58
2024/04/20 11:25:31;;;;;;;3.70;0.90;;;10.30;99.90;;;;;;5320354;26;20005;-57
2024/04/20 11:27:59;;;;;;;3.33;0.82;;;10.40;99.90;;;;;;5343423;26;20019;-57
2024/04/20 11:30:25;;;;;;;0.75;0.65;;;10.80;99.90;;;;;;5340022;26;20534;-57
2024/04/20 11:32:58;;;;;;;2.35;0.60;;;10.90;99.90;;;;;;5330492;26;19997;-54
2024/04/20 11:35:25;;;;;;;5.10;0.90;;;11.10;99.90;;;;;;5337037;26;20455;-57
2024/04/20 11:37:50;;;;;;;0.82;0.45;;;11.20;99.90;;;;;;5338467;26;20316;-57
2024/04/20 11:40:18;;;;;;;1.48;0.80;;;11.40;99.90;;;;;;5291244;26;20020;-55
2024/04/20 11:42:44;;;;;;;1.23;0.80;;;11.90;99.90;;;;;;5338238;26;19997;-54
2024/04/20 11:45:16;;;;;;;2.22;1.00;;;11.90;99.90;;;;;;5314595;26;20005;-56
2024/04/20 11:47:42;;;;;;;0.88;0.52;;;11.60;99.90;;;;;;5344481;26;20338;-54
2024/04/20 11:50:07;;;;;;;2.13;0.90;;;10.20;99.90;;;;;;5339341;26;20005;-58
2024/04/20 11:55:18;;;;;;;1.40;0.60;;;8.60;99.90;;;;;;5331684;26;20012;-57
2024/04/20 11:57:43;;;;;;;2.05;0.50;;;7.80;99.90;;;;;;5330263;26;20332;-56
2024/04/20 12:00:12;;;;;;;0.70;0.32;;;7.50;99.90;;;;;;5332316;26;20045;-58
2024/04/20 12:02:38;;;;;;;1.13;0.38;;;7.40;99.90;;;;;;5338092;26;20067;-57
2024/04/20 12:05:04;;;;;;;2.92;0.60;;;7.60;99.90;;;;;;5347258;26;20009;-56
2024/04/20 12:07:29;;;;;;;0.50;0.38;;;7.90;99.90;;;;;;5333380;26;20001;-56
2024/04/20 12:09:55;;;;;;;1.58;0.40;;;8.20;99.90;;;;;;5335027;26;20015;-56
2024/04/20 12:12:21;;;;;;;2.05;0.60;;;8.50;99.90;;;;;;5341076;26;20009;-58
2024/04/20 12:14:47;;;;;;;2.13;0.77;;;9.00;99.90;;;;;;5334853;26;19993;-54
2024/04/20 12:17:13;;;;;;;3.47;1.30;;;9.30;99.90;;;;;;5337077;26;19997;-56
2024/04/20 12:19:38;;;;;;;2.33;0.93;;;9.50;99.90;;;;;;5337456;26;20059;-57
2024/04/20 12:22:04;;;;;;;1.35;0.80;;;9.50;99.90;;;;;;5320446;26;19997;-58
2024/04/20 12:24:30;;;;;;;3.97;0.60;;;9.80;99.90;;;;;;5330710;26;20021;-56
2024/04/20 12:26:56;;;;;;;3.60;0.90;;;10.00;99.90;;;;;;5336860;26;21436;-56
2024/04/20 12:29:22;;;;;;;2.22;1.13;;;10.20;99.90;;;;;;5322015;26;20045;-57
2024/04/20 12:31:47;;;;;;;4.18;0.60;;;10.50;99.90;;;;;;5328606;26;20642;-56
2024/04/20 12:34:13;;;;;;;3.35;0.73;;;10.70;99.90;;;;;;5325898;26;20447;-57
2024/04/20 12:36:39;;;;;;;3.63;1.20;;;11.10;99.90;;;;;;5327137;26;20069;-59
2024/04/20 12:39:06;;;;;;;1.45;0.77;;;11.60;99.90;;;;;;5322378;26;20036;-57
2024/04/20 12:41:33;;;;;;;3.75;0.90;;;11.80;99.90;;;;;;5312220;26;20033;-57
2024/04/20 12:43:58;;;;;;;3.67;0.93;;;12.30;99.90;;;;;;5330461;26;20371;-59
2024/04/20 12:46:24;;;;;;;4.85;1.00;;;12.60;99.90;;;;;;5321056;26;19997;-54